KBOW/BOW METAR and TAF weather

Enter ICAO airport designator
Station Type Date Time Source
KBOW METAR 2019/08/21 20:45 UTC NOAA

KBOW 212045Z 13004KT 10SM VCSH BKN035 33/22 A3003


Station Type Date Time Source
KBOW Decoded METAR 2019/08/21 20:45 UTC NOAA

Station name not available
Aug 21, 2019 - 04:45 PM EDT / 2019.08.21 2045 UTC
Wind: from the SE (130 degrees) at 5 MPH (4 KT):0
Visibility: 10 mile(s):0
Sky conditions: mostly cloudy
Weather: showers in the vicinity
Temperature: 91 F (33 C)
Heat index: 97.5 F (36.4 C):1
Dew Point: 71 F (22 C)
Relative Humidity: 52%
Pressure (altimeter): 30.03 in. Hg (1016 hPa)
ob: KBOW 212045Z 13004KT 10SM VCSH BKN035 33/22 A3003
cycle: 21

Station Type Date Time Source
KBOW TAF UTC NOAA

Error!

Example: see airport list